EHGR

Gilze Rijen Air Base Airport

Breda, The Netherlands
METAR EHGR 110425Z AUTO 26004KT 9999 SCT044 SCT048 01/M01 Q1024 BLU
Observed Flight Rules
Dec-11 @ 04:25 UTC (8 minutes ago) Visual Flight Rules
Wind Visibility Clouds
260° at 4 knots 10,000+ meters
  • Scattered at 4,400' AGL
  • Scattered at 4,800' AGL
Temperatures Readings
Current 1°C / 34°F
Dewpoint -1°C / 30°F
Humidity 87%
Altimeter 30.24" Hg
Pressure 1024 hPa
Elevation 13
METAR EHGR 110425Z AUTO 26004KT 9999 SCT044 SCT048 01/M01 Q1024 BLU
Observed Flight Rules
Dec-11 @ 04:25 UTC
(8 minutes ago)
VFR
Wind Visibility
260° at 4 knots 10,000+ meters
Clouds
  • Scattered at 4,400' AGL
  • Scattered at 4,800' AGL
Temperature Dewpoint
1°C / 34°F -1°C / 30°F
Humidity Altimeter Pressure
87% 30.24" Hg 1024 hPa